sensor_id;sensor_type;location;lat;lon;timestamp;pressure;altitude;pressure_sealevel;temperature;humidity
51359;BME280;37448;51.588;7.248;2023-07-13T00:01:43;100803.69;;;17.83;63.94
51359;BME280;37448;51.588;7.248;2023-07-13T00:03:43;100807.16;;;17.85;63.85
51359;BME280;37448;51.588;7.248;2023-07-13T00:05:43;100804.78;;;17.79;63.48
51359;BME280;37448;51.588;7.248;2023-07-13T00:07:44;100804.09;;;17.75;62.49
51359;BME280;37448;51.588;7.248;2023-07-13T00:09:47;100806.97;;;17.71;63.48
51359;BME280;37448;51.588;7.248;2023-07-13T00:11:54;100811.63;;;17.65;62.86
51359;BME280;37448;51.588;7.248;2023-07-13T00:13:54;100803.13;;;17.59;63.42
51359;BME280;37448;51.588;7.248;2023-07-13T00:15:56;100808.72;;;17.53;63.14
51359;BME280;37448;51.588;7.248;2023-07-13T00:17:56;100807.00;;;17.52;63.41
51359;BME280;37448;51.588;7.248;2023-07-13T00:19:57;100810.69;;;17.47;63.04
51359;BME280;37448;51.588;7.248;2023-07-13T00:21:58;100807.44;;;17.42;64.13
51359;BME280;37448;51.588;7.248;2023-07-13T00:23:59;100806.00;;;17.35;64.22
51359;BME280;37448;51.588;7.248;2023-07-13T00:26:06;100806.38;;;17.27;63.61
51359;BME280;37448;51.588;7.248;2023-07-13T00:28:07;100803.00;;;17.24;63.56
51359;BME280;37448;51.588;7.248;2023-07-13T00:30:07;100805.81;;;17.20;64.17
51359;BME280;37448;51.588;7.248;2023-07-13T00:32:09;100810.44;;;17.15;63.91
51359;BME280;37448;51.588;7.248;2023-07-13T00:34:10;100806.19;;;17.13;64.74
51359;BME280;37448;51.588;7.248;2023-07-13T00:36:11;100808.16;;;17.07;64.97
51359;BME280;37448;51.588;7.248;2023-07-13T00:38:11;100807.47;;;17.04;65.04
51359;BME280;37448;51.588;7.248;2023-07-13T00:40:13;100798.88;;;16.99;64.94
51359;BME280;37448;51.588;7.248;2023-07-13T00:42:14;100808.84;;;16.92;65.55
51359;BME280;37448;51.588;7.248;2023-07-13T00:44:17;100809.09;;;16.86;65.28
51359;BME280;37448;51.588;7.248;2023-07-13T00:46:24;100807.63;;;16.80;65.43
51359;BME280;37448;51.588;7.248;2023-07-13T00:48:27;100804.25;;;16.76;65.42
51359;BME280;37448;51.588;7.248;2023-07-13T00:50:29;100812.34;;;16.72;65.61
51359;BME280;37448;51.588;7.248;2023-07-13T00:52:30;100808.94;;;16.70;65.92
51359;BME280;37448;51.588;7.248;2023-07-13T00:54:35;100814.34;;;16.67;65.48
51359;BME280;37448;51.588;7.248;2023-07-13T00:56:37;100805.06;;;16.58;64.29
51359;BME280;37448;51.588;7.248;2023-07-13T00:58:37;100803.31;;;16.58;65.51
51359;BME280;37448;51.588;7.248;2023-07-13T01:00:38;100806.00;;;16.57;65.32
51359;BME280;37448;51.588;7.248;2023-07-13T01:02:42;100810.41;;;16.56;65.45
51359;BME280;37448;51.588;7.248;2023-07-13T01:04:44;100810.63;;;16.52;65.04
51359;BME280;37448;51.588;7.248;2023-07-13T01:06:45;100808.03;;;16.50;64.53
51359;BME280;37448;51.588;7.248;2023-07-13T01:08:47;100806.25;;;16.50;65.86
51359;BME280;37448;51.588;7.248;2023-07-13T01:10:54;100809.97;;;16.46;63.91
51359;BME280;37448;51.588;7.248;2023-07-13T01:12:55;100806.47;;;16.46;65.82
51359;BME280;37448;51.588;7.248;2023-07-13T01:15:00;100800.41;;;16.44;65.50
51359;BME280;37448;51.588;7.248;2023-07-13T01:17:01;100800.47;;;16.42;65.59
51359;BME280;37448;51.588;7.248;2023-07-13T01:19:15;100797.91;;;16.41;65.00
51359;BME280;37448;51.588;7.248;2023-07-13T01:21:18;100794.53;;;16.37;65.54
51359;BME280;37448;51.588;7.248;2023-07-13T01:23:19;100800.69;;;16.38;65.19
51359;BME280;37448;51.588;7.248;2023-07-13T01:25:20;100810.44;;;16.35;65.59
51359;BME280;37448;51.588;7.248;2023-07-13T01:27:24;100799.16;;;16.32;64.22
51359;BME280;37448;51.588;7.248;2023-07-13T01:29:25;100805.44;;;16.29;64.85
51359;BME280;37448;51.588;7.248;2023-07-13T01:31:25;100797.63;;;16.26;65.18
51359;BME280;37448;51.588;7.248;2023-07-13T01:33:26;100803.03;;;16.23;65.28
51359;BME280;37448;51.588;7.248;2023-07-13T01:35:27;100798.81;;;16.19;65.27
51359;BME280;37448;51.588;7.248;2023-07-13T01:37:27;100800.63;;;16.18;64.97
51359;BME280;37448;51.588;7.248;2023-07-13T01:39:36;100804.09;;;16.19;65.02
51359;BME280;37448;51.588;7.248;2023-07-13T01:41:37;100808.56;;;16.17;65.43
51359;BME280;37448;51.588;7.248;2023-07-13T01:43:37;100801.66;;;16.14;65.50
51359;BME280;37448;51.588;7.248;2023-07-13T01:45:40;100804.34;;;16.13;64.80
51359;BME280;37448;51.588;7.248;2023-07-13T01:47:43;100802.78;;;16.09;65.36
51359;BME280;37448;51.588;7.248;2023-07-13T01:49:44;100801.91;;;16.08;65.31
51359;BME280;37448;51.588;7.248;2023-07-13T01:51:46;100808.06;;;16.09;66.01
51359;BME280;37448;51.588;7.248;2023-07-13T01:53:47;100814.28;;;16.06;66.02
51359;BME280;37448;51.588;7.248;2023-07-13T01:55:47;100816.19;;;16.02;65.11
51359;BME280;37448;51.588;7.248;2023-07-13T01:57:48;100817.97;;;16.02;65.78
51359;BME280;37448;51.588;7.248;2023-07-13T01:59:49;100815.38;;;16.00;66.25
51359;BME280;37448;51.588;7.248;2023-07-13T02:01:49;100821.66;;;15.98;65.91
51359;BME280;37448;51.588;7.248;2023-07-13T02:03:50;100819.06;;;15.96;65.40
51359;BME280;37448;51.588;7.248;2023-07-13T02:05:50;100821.00;;;15.92;66.32
51359;BME280;37448;51.588;7.248;2023-07-13T02:07:51;100820.25;;;15.89;66.18
51359;BME280;37448;51.588;7.248;2023-07-13T02:09:51;100823.00;;;15.86;65.26
51359;BME280;37448;51.588;7.248;2023-07-13T02:11:51;100824.69;;;15.87;66.43
51359;BME280;37448;51.588;7.248;2023-07-13T02:13:52;100825.66;;;15.84;65.88
51359;BME280;37448;51.588;7.248;2023-07-13T02:15:52;100819.69;;;15.81;66.23
51359;BME280;37448;51.588;7.248;2023-07-13T02:17:52;100816.25;;;15.78;66.44
51359;BME280;37448;51.588;7.248;2023-07-13T02:19:53;100812.81;;;15.76;66.53
51359;BME280;37448;51.588;7.248;2023-07-13T02:21:54;100805.97;;;15.72;66.09
51359;BME280;37448;51.588;7.248;2023-07-13T02:23:54;100812.28;;;15.68;65.74
51359;BME280;37448;51.588;7.248;2023-07-13T02:25:56;100813.06;;;15.70;66.54
51359;BME280;37448;51.588;7.248;2023-07-13T02:27:56;100813.94;;;15.71;66.34
51359;BME280;37448;51.588;7.248;2023-07-13T02:29:57;100821.09;;;15.67;65.75
51359;BME280;37448;51.588;7.248;2023-07-13T02:31:57;100818.47;;;15.67;66.63
51359;BME280;37448;51.588;7.248;2023-07-13T02:33:58;100813.31;;;15.64;66.69
51359;BME280;37448;51.588;7.248;2023-07-13T02:35:58;100822.19;;;15.61;65.94
51359;BME280;37448;51.588;7.248;2023-07-13T02:37:58;100815.28;;;15.59;66.75
51359;BME280;37448;51.588;7.248;2023-07-13T02:39:59;100827.53;;;15.60;67.48
51359;BME280;37448;51.588;7.248;2023-07-13T02:41:59;100813.56;;;15.58;67.23
51359;BME280;37448;51.588;7.248;2023-07-13T02:44:02;100810.16;;;15.56;66.77
51359;BME280;37448;51.588;7.248;2023-07-13T02:46:05;100818.22;;;15.51;66.82
51359;BME280;37448;51.588;7.248;2023-07-13T02:48:09;100812.97;;;15.51;67.28
51359;BME280;37448;51.588;7.248;2023-07-13T02:50:09;100813.91;;;15.48;67.15
51359;BME280;37448;51.588;7.248;2023-07-13T02:52:09;100819.19;;;15.48;67.56
51359;BME280;37448;51.588;7.248;2023-07-13T02:54:10;100820.19;;;15.46;67.60
51359;BME280;37448;51.588;7.248;2023-07-13T02:56:12;100821.28;;;15.40;66.77
51359;BME280;37448;51.588;7.248;2023-07-13T02:58:12;100820.41;;;15.40;67.48
51359;BME280;37448;51.588;7.248;2023-07-13T03:00:17;100816.91;;;15.39;68.18
51359;BME280;37448;51.588;7.248;2023-07-13T03:02:17;100825.84;;;15.35;67.52
51359;BME280;37448;51.588;7.248;2023-07-13T03:04:18;100825.16;;;15.30;67.43
51359;BME280;37448;51.588;7.248;2023-07-13T03:06:20;100832.13;;;15.31;67.42
51359;BME280;37448;51.588;7.248;2023-07-13T03:08:25;100832.25;;;15.28;67.97
51359;BME280;37448;51.588;7.248;2023-07-13T03:10:27;100827.97;;;15.25;67.52
51359;BME280;37448;51.588;7.248;2023-07-13T03:12:28;100833.13;;;15.28;66.56
51359;BME280;37448;51.588;7.248;2023-07-13T03:14:29;100833.97;;;15.29;67.49
51359;BME280;37448;51.588;7.248;2023-07-13T03:16:30;100833.97;;;15.29;67.40
51359;BME280;37448;51.588;7.248;2023-07-13T03:18:31;100834.88;;;15.28;67.50
51359;BME280;37448;51.588;7.248;2023-07-13T03:20:35;100833.13;;;15.28;67.45
51359;BME280;37448;51.588;7.248;2023-07-13T03:22:36;100841.84;;;15.29;67.88
51359;BME280;37448;51.588;7.248;2023-07-13T03:24:37;100834.09;;;15.26;68.47
51359;BME280;37448;51.588;7.248;2023-07-13T03:26:38;100832.38;;;15.25;67.60
51359;BME280;37448;51.588;7.248;2023-07-13T03:28:39;100835.00;;;15.25;67.77
51359;BME280;37448;51.588;7.248;2023-07-13T03:30:42;100840.38;;;15.21;68.18
51359;BME280;37448;51.588;7.248;2023-07-13T03:32:42;100848.34;;;15.20;68.30
51359;BME280;37448;51.588;7.248;2023-07-13T03:34:43;100848.41;;;15.18;67.12
51359;BME280;37448;51.588;7.248;2023-07-13T03:36:43;100846.56;;;15.20;67.92
51359;BME280;37448;51.588;7.248;2023-07-13T03:38:48;100843.81;;;15.24;68.13
51359;BME280;37448;51.588;7.248;2023-07-13T03:40:52;100844.59;;;15.26;67.79
51359;BME280;37448;51.588;7.248;2023-07-13T03:42:52;100847.31;;;15.24;66.70
51359;BME280;37448;51.588;7.248;2023-07-13T03:44:53;100846.31;;;15.27;67.49
51359;BME280;37448;51.588;7.248;2023-07-13T03:46:53;100850.66;;;15.28;67.60
51359;BME280;37448;51.588;7.248;2023-07-13T03:48:54;100855.91;;;15.28;66.76
51359;BME280;37448;51.588;7.248;2023-07-13T03:50:54;100855.00;;;15.29;67.42
51359;BME280;37448;51.588;7.248;2023-07-13T03:52:56;100856.72;;;15.30;67.94
51359;BME280;37448;51.588;7.248;2023-07-13T03:54:57;100852.38;;;15.29;68.18
51359;BME280;37448;51.588;7.248;2023-07-13T03:56:58;100857.72;;;15.27;67.69
51359;BME280;37448;51.588;7.248;2023-07-13T03:58:58;100864.63;;;15.30;68.23
51359;BME280;37448;51.588;7.248;2023-07-13T04:01:00;100870.69;;;15.32;67.98
51359;BME280;37448;51.588;7.248;2023-07-13T04:03:01;100860.06;;;15.35;68.03
51359;BME280;37448;51.588;7.248;2023-07-13T04:05:01;100868.75;;;15.37;68.13
51359;BME280;37448;51.588;7.248;2023-07-13T04:07:02;100870.34;;;15.41;68.33
51359;BME280;37448;51.588;7.248;2023-07-13T04:09:03;100873.59;;;15.48;68.17
51359;BME280;37448;51.588;7.248;2023-07-13T04:11:05;100869.06;;;15.52;67.80
51359;BME280;37448;51.588;7.248;2023-07-13T04:13:05;100874.09;;;15.58;68.31
51359;BME280;37448;51.588;7.248;2023-07-13T04:15:06;100874.91;;;15.60;67.88
51359;BME280;37448;51.588;7.248;2023-07-13T04:17:07;100879.78;;;15.69;67.53
51359;BME280;37448;51.588;7.248;2023-07-13T04:19:08;100875.41;;;15.70;67.24
51359;BME280;37448;51.588;7.248;2023-07-13T04:21:10;100877.97;;;15.71;67.59
51359;BME280;37448;51.588;7.248;2023-07-13T04:23:10;100874.63;;;15.68;67.92
51359;BME280;37448;51.588;7.248;2023-07-13T04:25:11;100875.28;;;15.73;68.06
51359;BME280;37448;51.588;7.248;2023-07-13T04:27:11;100880.59;;;15.71;67.14
51359;BME280;37448;51.588;7.248;2023-07-13T04:29:12;100877.03;;;15.72;66.60
51359;BME280;37448;51.588;7.248;2023-07-13T04:31:12;100873.50;;;15.73;67.00
51359;BME280;37448;51.588;7.248;2023-07-13T04:33:13;100877.72;;;15.77;66.91
51359;BME280;37448;51.588;7.248;2023-07-13T04:35:13;100881.22;;;15.78;67.24
51359;BME280;37448;51.588;7.248;2023-07-13T04:37:14;100881.09;;;15.81;66.60
51359;BME280;37448;51.588;7.248;2023-07-13T04:39:14;100885.25;;;15.87;66.76
51359;BME280;37448;51.588;7.248;2023-07-13T04:41:15;100890.31;;;15.93;66.43
51359;BME280;37448;51.588;7.248;2023-07-13T04:43:15;100882.84;;;16.04;67.28
51359;BME280;37448;51.588;7.248;2023-07-13T04:45:16;100883.50;;;16.10;67.06
51359;BME280;37448;51.588;7.248;2023-07-13T04:47:18;100887.72;;;16.14;66.53
51359;BME280;37448;51.588;7.248;2023-07-13T04:49:18;100884.72;;;16.23;66.32
51359;BME280;37448;51.588;7.248;2023-07-13T04:51:19;100885.41;;;16.28;65.99
51359;BME280;37448;51.588;7.248;2023-07-13T04:53:19;100888.75;;;16.32;65.75
51359;BME280;37448;51.588;7.248;2023-07-13T04:55:20;100886.56;;;16.42;66.03
51359;BME280;37448;51.588;7.248;2023-07-13T04:57:20;100891.31;;;16.33;65.89
51359;BME280;37448;51.588;7.248;2023-07-13T04:59:21;100896.47;;;16.36;66.02
51359;BME280;37448;51.588;7.248;2023-07-13T05:01:22;100896.19;;;16.43;65.70
51359;BME280;37448;51.588;7.248;2023-07-13T05:03:22;100899.00;;;16.38;65.51
51359;BME280;37448;51.588;7.248;2023-07-13T05:05:24;100893.31;;;16.28;65.67
51359;BME280;37448;51.588;7.248;2023-07-13T05:07:26;100898.19;;;16.38;65.76
51359;BME280;37448;51.588;7.248;2023-07-13T05:09:26;100892.44;;;16.28;65.80
51359;BME280;37448;51.588;7.248;2023-07-13T05:11:27;100898.31;;;16.34;65.13
51359;BME280;37448;51.588;7.248;2023-07-13T05:13:27;100900.94;;;16.34;65.80
51359;BME280;37448;51.588;7.248;2023-07-13T05:15:27;100902.84;;;16.31;65.74
51359;BME280;37448;51.588;7.248;2023-07-13T05:17:28;100907.66;;;16.42;66.27
51359;BME280;37448;51.588;7.248;2023-07-13T05:19:29;100903.31;;;16.41;66.35
51359;BME280;37448;51.588;7.248;2023-07-13T05:21:30;100907.66;;;16.42;66.57
51359;BME280;37448;51.588;7.248;2023-07-13T05:23:31;100906.75;;;16.43;66.36
51359;BME280;37448;51.588;7.248;2023-07-13T05:25:32;100907.47;;;16.46;66.35
51359;BME280;37448;51.588;7.248;2023-07-13T05:27:36;100905.69;;;16.47;66.71
51359;BME280;37448;51.588;7.248;2023-07-13T05:29:36;100908.88;;;16.55;66.19
51359;BME280;37448;51.588;7.248;2023-07-13T05:31:37;100917.50;;;16.59;66.19
51359;BME280;37448;51.588;7.248;2023-07-13T05:33:37;100913.34;;;16.53;65.69
51359;BME280;37448;51.588;7.248;2023-07-13T05:35:37;100917.50;;;16.59;65.74
51359;BME280;37448;51.588;7.248;2023-07-13T05:37:38;100922.25;;;16.71;65.54
51359;BME280;37448;51.588;7.248;2023-07-13T05:39:38;100925.03;;;16.68;65.54
51359;BME280;37448;51.588;7.248;2023-07-13T05:41:39;100926.66;;;16.71;65.99
51359;BME280;37448;51.588;7.248;2023-07-13T05:43:40;100926.16;;;16.83;65.99
51359;BME280;37448;51.588;7.248;2023-07-13T05:45:40;100923.50;;;16.83;65.48
51359;BME280;37448;51.588;7.248;2023-07-13T05:47:41;100922.84;;;16.99;65.50
51359;BME280;37448;51.588;7.248;2023-07-13T05:49:41;100928.53;;;17.10;64.68
51359;BME280;37448;51.588;7.248;2023-07-13T05:51:42;100933.19;;;17.43;65.26
51359;BME280;37448;51.588;7.248;2023-07-13T05:53:42;100922.88;;;17.58;63.73
51359;BME280;37448;51.588;7.248;2023-07-13T05:55:45;100923.06;;;17.72;63.73
51359;BME280;37448;51.588;7.248;2023-07-13T05:57:47;100922.34;;;18.07;63.49
51359;BME280;37448;51.588;7.248;2023-07-13T05:59:48;100921.22;;;18.30;61.41
51359;BME280;37448;51.588;7.248;2023-07-13T06:01:49;100929.94;;;18.50;62.50
51359;BME280;37448;51.588;7.248;2023-07-13T06:03:49;100932.19;;;18.75;61.53
51359;BME280;37448;51.588;7.248;2023-07-13T06:05:50;100938.63;;;18.87;60.54
51359;BME280;37448;51.588;7.248;2023-07-13T06:07:50;100940.19;;;19.09;61.25
51359;BME280;37448;51.588;7.248;2023-07-13T06:09:51;100943.75;;;18.90;59.99
51359;BME280;37448;51.588;7.248;2023-07-13T06:11:51;100943.78;;;19.08;60.68
51359;BME280;37448;51.588;7.248;2023-07-13T06:13:52;100953.00;;;19.01;60.90
51359;BME280;37448;51.588;7.248;2023-07-13T06:15:52;100955.00;;;18.96;59.70
51359;BME280;37448;51.588;7.248;2023-07-13T06:17:53;100951.88;;;18.87;61.49
51359;BME280;37448;51.588;7.248;2023-07-13T06:19:53;100959.66;;;18.73;61.42
51359;BME280;37448;51.588;7.248;2023-07-13T06:21:53;100963.53;;;18.65;61.44
51359;BME280;37448;51.588;7.248;2023-07-13T06:23:54;100960.59;;;18.54;61.75
51359;BME280;37448;51.588;7.248;2023-07-13T06:25:54;100956.63;;;18.63;61.44
51359;BME280;37448;51.588;7.248;2023-07-13T06:27:54;100962.59;;;18.84;61.32
51359;BME280;37448;51.588;7.248;2023-07-13T06:29:55;100955.41;;;19.05;60.29
51359;BME280;37448;51.588;7.248;2023-07-13T06:31:55;100955.09;;;19.28;59.37
51359;BME280;37448;51.588;7.248;2023-07-13T06:33:55;100966.81;;;19.73;59.92
51359;BME280;37448;51.588;7.248;2023-07-13T06:35:56;100970.19;;;19.93;59.00
51359;BME280;37448;51.588;7.248;2023-07-13T06:37:56;100964.09;;;20.23;58.78
51359;BME280;37448;51.588;7.248;2023-07-13T06:39:56;100972.31;;;20.49;58.08
51359;BME280;37448;51.588;7.248;2023-07-13T06:41:57;100974.66;;;20.39;56.13
51359;BME280;37448;51.588;7.248;2023-07-13T06:43:57;100968.94;;;20.61;57.43
51359;BME280;37448;51.588;7.248;2023-07-13T06:45:58;100969.03;;;20.60;57.00
51359;BME280;37448;51.588;7.248;2023-07-13T06:47:58;100969.91;;;20.91;56.11
51359;BME280;37448;51.588;7.248;2023-07-13T06:49:59;100977.78;;;21.07;55.37
51359;BME280;37448;51.588;7.248;2023-07-13T06:52:00;100973.81;;;21.00;53.75
51359;BME280;37448;51.588;7.248;2023-07-13T06:54:00;100978.94;;;21.03;54.19
51359;BME280;37448;51.588;7.248;2023-07-13T06:56:01;100978.94;;;21.03;54.60
51359;BME280;37448;51.588;7.248;2023-07-13T06:58:01;100981.69;;;21.16;53.88
51359;BME280;37448;51.588;7.248;2023-07-13T07:00:02;100978.81;;;20.90;54.12
51359;BME280;37448;51.588;7.248;2023-07-13T07:02:03;100977.59;;;20.96;54.67
51359;BME280;37448;51.588;7.248;2023-07-13T07:04:03;100979.31;;;20.97;54.64
51359;BME280;37448;51.588;7.248;2023-07-13T07:06:17;100977.03;;;20.90;54.07
51359;BME280;37448;51.588;7.248;2023-07-13T07:08:18;100971.41;;;20.95;54.50
51359;BME280;37448;51.588;7.248;2023-07-13T07:10:18;100979.34;;;21.26;54.77
51359;BME280;37448;51.588;7.248;2023-07-13T07:12:19;100977.06;;;21.48;54.39
51359;BME280;37448;51.588;7.248;2023-07-13T07:14:19;100982.72;;;21.57;53.47
51359;BME280;37448;51.588;7.248;2023-07-13T07:16:20;100984.94;;;21.64;53.94
51359;BME280;37448;51.588;7.248;2023-07-13T07:18:21;100991.28;;;21.33;53.17
51359;BME280;37448;51.588;7.248;2023-07-13T07:20:21;100991.47;;;21.88;53.01
51359;BME280;37448;51.588;7.248;2023-07-13T07:22:22;100986.03;;;21.89;53.24
51359;BME280;37448;51.588;7.248;2023-07-13T07:24:22;100984.81;;;21.95;52.12
51359;BME280;37448;51.588;7.248;2023-07-13T07:26:23;100989.63;;;22.03;52.51
51359;BME280;37448;51.588;7.248;2023-07-13T07:28:23;100992.28;;;22.03;52.44
51359;BME280;37448;51.588;7.248;2023-07-13T07:30:24;100994.69;;;21.78;52.12
51359;BME280;37448;51.588;7.248;2023-07-13T07:32:24;100987.94;;;22.02;52.63
51359;BME280;37448;51.588;7.248;2023-07-13T07:34:25;100989.06;;;22.25;52.00
51359;BME280;37448;51.588;7.248;2023-07-13T07:36:25;100989.06;;;22.25;51.73
51359;BME280;37448;51.588;7.248;2023-07-13T07:38:25;100989.53;;;22.46;52.11
51359;BME280;37448;51.588;7.248;2023-07-13T07:40:26;100984.22;;;22.59;51.68
51359;BME280;37448;51.588;7.248;2023-07-13T07:42:26;100980.34;;;22.91;51.86
51359;BME280;37448;51.588;7.248;2023-07-13T07:44:27;100991.19;;;23.01;50.45
51359;BME280;37448;51.588;7.248;2023-07-13T07:46:28;100994.72;;;23.14;51.38
51359;BME280;37448;51.588;7.248;2023-07-13T07:48:29;100982.47;;;23.37;51.04
51359;BME280;37448;51.588;7.248;2023-07-13T07:50:30;100986.53;;;23.43;50.79
51359;BME280;37448;51.588;7.248;2023-07-13T07:52:31;100990.47;;;23.50;49.02
51359;BME280;37448;51.588;7.248;2023-07-13T07:54:31;100987.50;;;23.42;49.70
51359;BME280;37448;51.588;7.248;2023-07-13T07:56:32;100995.97;;;23.73;48.94
51359;BME280;37448;51.588;7.248;2023-07-13T07:58:33;100983.41;;;23.23;50.47
51359;BME280;37448;51.588;7.248;2023-07-13T08:00:33;100992.16;;;23.00;48.81
51359;BME280;37448;51.588;7.248;2023-07-13T08:02:33;100988.72;;;22.85;49.69
51359;BME280;37448;51.588;7.248;2023-07-13T08:04:34;100989.56;;;22.59;50.99
51359;BME280;37448;51.588;7.248;2023-07-13T08:06:34;100997.28;;;22.49;50.15
51359;BME280;37448;51.588;7.248;2023-07-13T08:08:35;100990.53;;;22.44;51.57
51359;BME280;37448;51.588;7.248;2023-07-13T08:10:36;100991.03;;;22.36;51.70
51359;BME280;37448;51.588;7.248;2023-07-13T08:12:39;100989.69;;;22.84;51.83
51359;BME280;37448;51.588;7.248;2023-07-13T08:14:39;100995.75;;;22.86;50.23
51359;BME280;37448;51.588;7.248;2023-07-13T08:16:40;101000.56;;;23.19;51.36
51359;BME280;37448;51.588;7.248;2023-07-13T08:18:40;100991.84;;;23.43;49.78
51359;BME280;37448;51.588;7.248;2023-07-13T08:20:41;100988.75;;;23.49;48.13
51359;BME280;37448;51.588;7.248;2023-07-13T08:22:41;100984.59;;;23.58;48.04
51359;BME280;37448;51.588;7.248;2023-07-13T08:24:42;100994.81;;;23.77;48.57
51359;BME280;37448;51.588;7.248;2023-07-13T08:26:45;100994.63;;;23.92;48.03
51359;BME280;37448;51.588;7.248;2023-07-13T08:28:46;100995.47;;;24.30;48.75
51359;BME280;37448;51.588;7.248;2023-07-13T08:30:47;100993.00;;;24.15;47.68
51359;BME280;37448;51.588;7.248;2023-07-13T08:32:49;100999.56;;;24.22;47.55
51359;BME280;37448;51.588;7.248;2023-07-13T08:34:49;100989.53;;;24.26;47.25
51359;BME280;37448;51.588;7.248;2023-07-13T08:36:50;100987.72;;;24.51;47.53
51359;BME280;37448;51.588;7.248;2023-07-13T08:38:50;100984.81;;;24.65;45.89
51359;BME280;37448;51.588;7.248;2023-07-13T08:40:53;100986.22;;;24.83;47.41
51359;BME280;37448;51.588;7.248;2023-07-13T08:42:58;100984.97;;;25.34;47.00
51359;BME280;37448;51.588;7.248;2023-07-13T08:47:20;100983.66;;;25.40;46.74
51359;BME280;37448;51.588;7.248;2023-07-13T08:49:22;100983.25;;;25.10;44.14
51359;BME280;37448;51.588;7.248;2023-07-13T08:53:40;100990.44;;;24.38;47.16
51359;BME280;37448;51.588;7.248;2023-07-13T08:55:42;100990.88;;;24.56;46.15
51359;BME280;37448;51.588;7.248;2023-07-13T08:57:46;100987.72;;;24.51;46.15
51359;BME280;37448;51.588;7.248;2023-07-13T08:59:48;100983.41;;;24.73;45.39
51359;BME280;37448;51.588;7.248;2023-07-13T09:04:05;100986.09;;;24.48;45.69
51359;BME280;37448;51.588;7.248;2023-07-13T09:06:09;100988.50;;;24.16;45.90
51359;BME280;37448;51.588;7.248;2023-07-13T09:10:41;100985.31;;;24.59;46.01
51359;BME280;37448;51.588;7.248;2023-07-13T09:14:54;100984.78;;;24.78;44.26
51359;BME280;37448;51.588;7.248;2023-07-13T09:16:56;100989.19;;;24.66;43.73
51359;BME280;37448;51.588;7.248;2023-07-13T09:19:02;100988.06;;;24.93;44.50
51359;BME280;37448;51.588;7.248;2023-07-13T09:21:15;100981.81;;;25.06;43.75
51359;BME280;37448;51.588;7.248;2023-07-13T09:23:21;100998.50;;;24.85;43.55
51359;BME280;37448;51.588;7.248;2023-07-13T09:25:33;100984.00;;;25.23;44.91
51359;BME280;37448;51.588;7.248;2023-07-13T09:27:39;100983.16;;;25.34;45.10
51359;BME280;37448;51.588;7.248;2023-07-13T09:29:42;100990.47;;;25.67;44.21
51359;BME280;37448;51.588;7.248;2023-07-13T09:31:49;100993.22;;;25.88;42.57
51359;BME280;37448;51.588;7.248;2023-07-13T09:33:53;100976.44;;;25.97;43.63
51359;BME280;37448;51.588;7.248;2023-07-13T09:35:53;100993.94;;;26.01;44.49
51359;BME280;37448;51.588;7.248;2023-07-13T09:38:11;100987.19;;;26.30;44.97
51359;BME280;37448;51.588;7.248;2023-07-13T09:40:28;100997.72;;;26.43;43.13
51359;BME280;37448;51.588;7.248;2023-07-13T09:42:33;100992.00;;;26.69;42.76
51359;BME280;37448;51.588;7.248;2023-07-13T09:44:39;100989.06;;;26.18;41.17
51359;BME280;37448;51.588;7.248;2023-07-13T09:46:46;100991.50;;;25.87;42.10
51359;BME280;37448;51.588;7.248;2023-07-13T09:48:51;100998.81;;;25.39;43.35
51359;BME280;37448;51.588;7.248;2023-07-13T09:50:55;101011.38;;;24.91;44.13
51359;BME280;37448;51.588;7.248;2023-07-13T09:52:57;101004.16;;;24.45;46.07
51359;BME280;37448;51.588;7.248;2023-07-13T09:54:59;100999.28;;;24.39;45.40
51359;BME280;37448;51.588;7.248;2023-07-13T09:57:01;101000.22;;;24.26;44.47
51359;BME280;37448;51.588;7.248;2023-07-13T09:59:02;101000.03;;;23.66;47.13
51359;BME280;37448;51.588;7.248;2023-07-13T10:01:03;101000.47;;;23.73;46.89
51359;BME280;37448;51.588;7.248;2023-07-13T10:03:15;101004.97;;;23.33;47.05
51359;BME280;37448;51.588;7.248;2023-07-13T10:05:16;100997.19;;;23.43;47.45
51359;BME280;37448;51.588;7.248;2023-07-13T10:07:19;101001.25;;;23.86;47.95
51359;BME280;37448;51.588;7.248;2023-07-13T10:09:22;101001.50;;;23.70;46.35
51359;BME280;37448;51.588;7.248;2023-07-13T10:11:28;101007.16;;;23.78;47.20
51359;BME280;37448;51.588;7.248;2023-07-13T10:13:36;100997.38;;;23.66;48.50
51359;BME280;37448;51.588;7.248;2023-07-13T10:15:37;101005.63;;;24.00;47.10
51359;BME280;37448;51.588;7.248;2023-07-13T10:17:37;101011.88;;;24.36;47.19
51359;BME280;37448;51.588;7.248;2023-07-13T10:19:38;101018.94;;;24.37;47.03
51359;BME280;37448;51.588;7.248;2023-07-13T10:22:21;101018.78;;;24.63;44.96
51359;BME280;37448;51.588;7.248;2023-07-13T10:24:26;101023.75;;;24.32;45.15
51359;BME280;37448;51.588;7.248;2023-07-13T10:26:33;101013.19;;;24.06;46.04
51359;BME280;37448;51.588;7.248;2023-07-13T10:28:38;101016.31;;;23.74;46.65
51359;BME280;37448;51.588;7.248;2023-07-13T10:30:41;101019.47;;;23.42;48.08
51359;BME280;37448;51.588;7.248;2023-07-13T10:32:43;101021.66;;;23.22;48.14
51359;BME280;37448;51.588;7.248;2023-07-13T10:34:46;101013.91;;;23.19;47.50
51359;BME280;37448;51.588;7.248;2023-07-13T10:36:48;101016.13;;;23.13;47.79
51359;BME280;37448;51.588;7.248;2023-07-13T10:38:50;101016.97;;;22.87;48.18
51359;BME280;37448;51.588;7.248;2023-07-13T10:40:57;101023.44;;;22.70;48.03
51359;BME280;37448;51.588;7.248;2023-07-13T10:43:01;101019.25;;;22.66;49.34
51359;BME280;37448;51.588;7.248;2023-07-13T10:45:14;101024.56;;;22.39;49.77
51359;BME280;37448;51.588;7.248;2023-07-13T10:47:16;101023.19;;;22.46;49.76
51359;BME280;37448;51.588;7.248;2023-07-13T10:49:19;101024.63;;;22.79;49.54